Time;durP1;ratioP1;P1;durP2;ratioP2;P2;SDS_P1;SDS_P2;PMS_P1;PMS_P2;Temp;Humidity;BMP_temperature;BMP_pressure;BME280_temperature;BME280_humidity;BME280_pressure;Samples;Min_cycle;Max_cycle;Signal;HPM_P1;HPM_P2
2023/01/21 00:00:10;;;;;;;8.10;5.00;;;;;;;-0.98;100.00;98000.71;106882;1281;22652;-71
2023/01/21 00:02:57;;;;;;;6.80;4.60;;;;;;;-0.98;100.00;97997.14;107187;1281;139470;-71
2023/01/21 00:05:24;;;;;;;8.60;4.70;;;;;;;-0.97;100.00;97999.90;106785;1281;23404;-70
2023/01/21 00:07:51;;;;;;;9.90;5.20;;;;;;;-0.97;100.00;97995.41;106570;1265;141367;-70
2023/01/21 00:10:18;;;;;;;8.50;4.60;;;;;;;-0.96;100.00;97998.56;106717;1281;22540;-71
2023/01/21 00:12:45;;;;;;;9.40;4.70;;;;;;;-0.96;100.00;98000.42;107289;1265;138845;-71
2023/01/21 00:15:11;;;;;;;7.60;4.20;;;;;;;-0.96;100.00;97996.52;106874;1281;22966;-71
2023/01/21 00:17:38;;;;;;;7.30;4.40;;;;;;;-0.96;100.00;97997.38;106789;1262;22563;-71
2023/01/21 00:20:05;;;;;;;7.70;4.30;;;;;;;-0.96;100.00;98002.02;106656;1278;139606;-71
2023/01/21 00:22:32;;;;;;;7.60;5.30;;;;;;;-0.96;100.00;98003.13;106835;1276;25341;-71
2023/01/21 00:24:59;;;;;;;6.90;4.50;;;;;;;-0.96;100.00;98003.13;106599;1280;138416;-71
2023/01/21 00:27:26;;;;;;;8.20;4.50;;;;;;;-0.95;100.00;98000.75;106848;1262;22547;-71
2023/01/21 00:29:53;;;;;;;9.10;5.10;;;;;;;-0.96;100.00;97997.25;106803;1281;24302;-71
2023/01/21 00:32:20;;;;;;;7.60;4.20;;;;;;;-0.97;100.00;98001.05;106607;1281;137866;-71
2023/01/21 00:34:46;;;;;;;8.80;4.70;;;;;;;-0.98;100.00;98000.88;106807;1281;24244;-71
2023/01/21 00:37:13;;;;;;;8.50;4.70;;;;;;;-0.98;100.00;98001.56;106577;1273;138990;-71
2023/01/21 00:39:41;;;;;;;10.20;5.90;;;;;;;-0.98;100.00;98001.61;106757;1281;22542;-71
2023/01/21 00:42:10;;;;;;;8.70;5.10;;;;;;;-0.98;100.00;98003.30;106796;1281;25409;-71
2023/01/21 00:44:37;;;;;;;9.90;4.90;;;;;;;-0.98;100.00;98003.34;106579;1281;139933;-71
2023/01/21 00:47:04;;;;;;;10.40;5.20;;;;;;;-0.97;100.00;98001.99;106772;1261;25359;-71
2023/01/21 00:49:31;;;;;;;6.60;3.90;;;;;;;-0.98;100.00;98002.98;106537;1281;138591;-71
2023/01/21 00:51:59;;;;;;;8.70;4.70;;;;;;;-0.98;100.00;98006.05;106825;1281;22547;-71
2023/01/21 00:54:25;;;;;;;9.00;5.00;;;;;;;-0.99;100.00;98005.80;106710;1281;22534;-71
2023/01/21 00:56:52;;;;;;;9.50;4.80;;;;;;;-1.00;100.00;98003.36;106552;1259;139325;-71
2023/01/21 00:59:19;;;;;;;7.40;4.50;;;;;;;-1.01;100.00;98007.20;106824;1281;22580;-71
2023/01/21 01:01:46;;;;;;;10.90;5.70;;;;;;;-1.01;100.00;98015.47;106948;1281;138653;-71
2023/01/21 01:04:13;;;;;;;8.80;4.90;;;;;;;-1.00;100.00;98023.01;106751;1281;22656;-71
2023/01/21 01:06:40;;;;;;;8.50;5.00;;;;;;;-0.99;100.00;98030.92;106721;1281;138172;-71
2023/01/21 01:09:07;;;;;;;7.60;4.90;;;;;;;-0.99;100.00;98032.52;106824;1263;22549;-71
2023/01/21 01:11:34;;;;;;;8.40;4.80;;;;;;;-0.98;100.00;98031.88;106700;1281;22853;-71
2023/01/21 01:14:01;;;;;;;10.20;5.20;;;;;;;-0.98;100.00;98030.60;106499;1281;138620;-71
2023/01/21 01:16:28;;;;;;;8.20;5.00;;;;;;;-0.97;100.00;98029.83;106693;1281;24372;-71
2023/01/21 01:18:55;;;;;;;9.70;4.90;;;;;;;-0.97;100.00;98027.86;106438;1262;139211;-71
2023/01/21 01:21:22;;;;;;;8.90;4.90;;;;;;;-0.98;100.00;98026.11;106654;1265;23053;-71
2023/01/21 01:23:51;;;;;;;7.80;4.20;;;;;;;-0.97;100.00;98023.08;106791;1280;22517;-71
2023/01/21 01:26:20;;;;;;;8.00;4.20;;;;;;;-0.98;100.00;98015.67;106593;1280;138214;-71
2023/01/21 01:28:47;;;;;;;8.10;4.00;;;;;;;-0.99;100.00;98015.21;106715;1265;22521;-71
2023/01/21 01:31:17;;;;;;;7.60;4.40;;;;;;;-1.00;100.00;98007.84;106706;1281;138514;-71
2023/01/21 01:33:45;;;;;;;5.50;3.50;;;;;;;-1.00;100.00;98014.25;107001;1281;25416;-71
2023/01/21 01:36:18;;;;;;;10.40;4.40;;;;;;;-1.01;100.00;98015.10;106702;1281;23004;-71
2023/01/21 01:38:45;;;;;;;7.50;4.40;;;;;;;-1.02;100.00;98010.23;107005;1261;139248;-70
2023/01/21 01:41:21;;;;;;;8.60;5.10;;;;;;;-1.03;100.00;98007.24;106911;1281;22566;-70
2023/01/21 01:44:01;;;;;;;5.90;4.10;;;;;;;-1.04;100.00;98002.96;106528;1278;138784;-70
2023/01/21 01:46:33;;;;;;;6.90;4.00;;;;;;;-1.02;100.00;98001.91;106724;1281;22563;-70
2023/01/21 01:49:10;;;;;;;9.00;4.80;;;;;;;-1.03;100.00;97999.81;106504;1263;140054;-70
2023/01/21 01:51:46;;;;;;;8.50;4.20;;;;;;;-1.03;100.00;97996.14;106774;1281;22527;-70
2023/01/21 01:54:19;;;;;;;5.60;3.70;;;;;;;-1.05;100.00;97990.29;106818;1281;25476;-70
2023/01/21 01:56:49;;;;;;;8.70;4.40;;;;;;;-1.07;100.00;97980.39;106550;1281;138362;-70
2023/01/21 01:59:17;;;;;;;7.10;3.30;;;;;;;-1.08;100.00;97976.99;106771;1261;24533;-70
2023/01/21 02:01:44;;;;;;;7.60;4.60;;;;;;;-1.09;100.00;97972.66;106509;1281;138378;-71
2023/01/21 02:04:16;;;;;;;8.30;4.00;;;;;;;-1.11;100.00;97975.68;106771;1275;22525;-70
2023/01/21 02:06:45;;;;;;;6.80;3.90;;;;;;;-1.12;100.00;97970.65;106617;1275;138944;-70
2023/01/21 02:09:12;;;;;;;7.00;3.70;;;;;;;-1.12;100.00;97973.56;107694;1262;22492;-70
2023/01/21 02:11:39;;;;;;;7.50;4.10;;;;;;;-1.14;100.00;97972.98;106727;1275;22556;-70
2023/01/21 02:14:06;;;;;;;7.00;3.70;;;;;;;-1.13;100.00;97970.95;106586;1278;138349;-70
2023/01/21 02:16:48;;;;;;;6.50;3.80;;;;;;;-1.14;100.00;97972.84;106819;1277;25249;-71
2023/01/21 02:19:41;;;;;;;8.00;4.60;;;;;;;-1.17;100.00;97970.86;106594;1261;138533;-70
2023/01/21 02:22:11;;;;;;;7.00;4.60;;;;;;;-1.16;100.00;97977.94;106894;1281;23287;-70
2023/01/21 02:24:44;;;;;;;7.40;3.50;;;;;;;-1.18;100.00;97981.62;106720;1281;138482;-71
2023/01/21 02:27:26;;;;;;;6.60;3.80;;;;;;;-1.18;100.00;97982.64;106828;1281;24358;-70
2023/01/21 02:30:05;;;;;;;8.50;4.30;;;;;;;-1.18;100.00;97981.86;106823;1262;22523;-71
2023/01/21 02:33:09;;;;;;;6.40;3.70;;;;;;;-1.17;100.00;97981.41;106558;1281;138480;-70
2023/01/21 02:35:47;;;;;;;7.10;3.30;;;;;;;-1.16;100.00;97982.71;106829;1278;25350;-70
2023/01/21 02:38:40;;;;;;;6.70;3.30;;;;;;;-1.16;100.00;97983.78;106713;1281;138340;-70
2023/01/21 02:41:45;;;;;;;6.00;3.50;;;;;;;-1.17;100.00;97982.98;106870;1262;24200;-70
2023/01/21 02:45:07;;;;;;;7.30;3.30;;;;;;;-1.19;100.00;97978.80;106991;1276;139495;-71
2023/01/21 02:48:03;;;;;;;4.60;2.90;;;;;;;-1.22;100.00;97977.54;105510;1296;23924;-70
2023/01/21 02:50:40;;;;;;;4.60;2.90;;;;;;;-1.22;100.00;97975.63;105466;1276;139234;-71
2023/01/21 02:53:34;;;;;;;6.90;3.30;;;;;;;-1.24;100.00;97972.79;105771;1295;22557;-70
2023/01/21 02:56:13;;;;;;;5.90;2.90;;;;;;;-1.25;100.00;97970.81;105588;1294;138426;-70
2023/01/21 02:58:48;;;;;;;;;;;;;;;-1.25;100.00;97972.71;105831;1294;22926;-71
2023/01/21 03:01:20;;;;;;;4.80;2.70;;;;;;;-1.26;100.00;97971.66;105495;1277;125597;-71
2023/01/21 03:03:55;;;;;;;4.80;2.60;;;;;;;-1.26;100.00;97970.96;105547;1296;24495;-70
2023/01/21 03:06:41;;;;;;;3.60;2.60;;;;;;;-1.27;100.00;97972.07;106435;1296;25365;-71
2023/01/21 03:09:28;;;;;;;3.90;2.50;;;;;;;-1.28;100.00;97967.90;105346;1296;138443;-71
2023/01/21 03:12:18;;;;;;;5.00;3.00;;;;;;;-1.28;100.00;97962.19;105667;1277;22770;-71
2023/01/21 03:17:48;;;;;;;4.80;2.40;;;;;;;-1.32;100.00;97957.54;105704;1290;23024;-71
2023/01/21 03:20:21;;;;;;;;;;;;;;;-1.34;100.00;97966.41;105519;1290;138042;-71
2023/01/21 03:22:52;;;;;;;3.30;2.10;;;;;;;-1.35;100.00;97969.68;106088;1288;22552;-71
2023/01/21 03:25:21;;;;;;;4.00;2.90;;;;;;;-1.37;100.00;97964.17;106217;1278;140782;-71
2023/01/21 03:27:49;;;;;;;3.30;2.30;;;;;;;-1.37;100.00;97963.20;106570;1283;22542;-70
2023/01/21 03:30:21;;;;;;;4.00;2.20;;;;;;;-1.36;100.00;97960.13;106593;1263;24215;-70
2023/01/21 03:32:50;;;;;;;3.40;2.40;;;;;;;-1.37;100.00;97965.04;106607;1281;137986;-70
2023/01/21 03:35:28;;;;;;;5.50;2.50;;;;;;;-1.37;100.00;97966.11;106768;1281;24333;-70
2023/01/21 03:38:11;;;;;;;4.80;2.60;;;;;;;-1.38;100.00;97967.63;106504;1281;137861;-71
2023/01/21 03:40:44;;;;;;;4.30;1.90;;;;;;;-1.38;100.00;97964.48;106712;1263;22544;-71
2023/01/21 03:43:11;;;;;;;4.80;2.80;;;;;;;-1.39;100.00;97962.22;106588;1281;138047;-71
2023/01/21 03:45:50;;;;;;;4.00;2.70;;;;;;;-1.39;100.00;97966.29;106698;1281;22796;-70
2023/01/21 03:48:25;;;;;;;4.00;2.40;;;;;;;-1.38;100.00;97963.74;106697;1259;23207;-70
2023/01/21 03:50:58;;;;;;;5.10;2.70;;;;;;;-1.38;100.00;97963.75;106466;1258;138111;-70
2023/01/21 03:53:25;;;;;;;5.40;2.50;;;;;;;-1.37;100.00;97963.48;106721;1281;22550;-70
2023/01/21 03:55:52;;;;;;;3.70;2.00;;;;;;;-1.38;100.00;97965.65;106494;1281;138411;-70
2023/01/21 03:58:19;;;;;;;3.20;2.00;;;;;;;-1.37;100.00;97963.64;106669;1281;24265;-71
2023/01/21 04:00:48;;;;;;;4.30;2.30;;;;;;;-1.37;100.00;97960.97;106594;1259;138516;-70
2023/01/21 04:03:14;;;;;;;5.70;3.20;;;;;;;-1.37;100.00;97959.41;106657;1282;22769;-71
2023/01/21 04:05:41;;;;;;;6.20;2.70;;;;;;;-1.37;100.00;97962.94;106665;1282;22541;-71
2023/01/21 04:08:08;;;;;;;4.30;2.70;;;;;;;-1.38;100.00;97957.42;106537;1281;137961;-70
2023/01/21 04:10:35;;;;;;;3.90;2.40;;;;;;;-1.37;100.00;97960.36;106656;1281;24297;-71
2023/01/21 04:13:02;;;;;;;3.50;2.60;;;;;;;-1.36;100.00;97964.81;106443;1271;138080;-71
2023/01/21 04:15:29;;;;;;;4.20;2.80;;;;;;;-1.36;100.00;97965.44;106663;1281;25298;-70
2023/01/21 04:17:56;;;;;;;3.00;2.10;;;;;;;-1.36;100.00;97965.77;106653;1281;25477;-70
2023/01/21 04:20:22;;;;;;;3.80;2.60;;;;;;;-1.34;100.00;97959.71;106480;1281;137853;-70
2023/01/21 04:22:49;;;;;;;3.60;2.00;;;;;;;-1.33;100.00;97956.55;106538;1265;22546;-70
2023/01/21 04:25:16;;;;;;;5.00;2.80;;;;;;;-1.32;100.00;97958.46;106398;1281;138047;-71
2023/01/21 04:27:43;;;;;;;4.20;3.00;;;;;;;-1.32;100.00;97957.48;107033;1276;22531;-70
2023/01/21 04:30:10;;;;;;;4.30;2.50;;;;;;;-1.31;100.00;97956.05;106683;1281;22557;-70
2023/01/21 04:32:37;;;;;;;4.20;2.70;;;;;;;-1.31;100.00;97959.59;106440;1281;138556;-71
2023/01/21 04:35:04;;;;;;;4.30;2.60;;;;;;;-1.32;100.00;97957.52;106464;1281;167968;-71
2023/01/21 04:37:31;;;;;;;4.70;2.90;;;;;;;-1.32;100.00;97956.86;106425;1281;138612;-70
2023/01/21 04:39:58;;;;;;;4.10;2.80;;;;;;;-1.32;100.00;97954.85;106697;1280;25492;-70
2023/01/21 04:42:25;;;;;;;4.60;2.40;;;;;;;-1.32;100.00;97948.14;106655;1263;22532;-70
2023/01/21 04:44:51;;;;;;;4.00;2.40;;;;;;;-1.32;100.00;97943.51;106428;1266;138144;-70
2023/01/21 04:47:18;;;;;;;3.20;2.50;;;;;;;-1.33;100.00;97944.98;106686;1281;25236;-70
2023/01/21 04:49:47;;;;;;;4.60;2.90;;;;;;;-1.33;100.00;97943.95;106467;1281;137912;-70
2023/01/21 04:52:14;;;;;;;3.40;2.50;;;;;;;-1.32;100.00;97943.01;106691;1263;24250;-70
2023/01/21 04:54:41;;;;;;;3.60;2.20;;;;;;;-1.33;100.00;97938.98;106494;1281;138072;-71
2023/01/21 04:57:09;;;;;;;5.30;2.80;;;;;;;-1.33;100.00;97942.70;106522;1281;138534;-70
2023/01/21 04:59:36;;;;;;;3.80;2.40;;;;;;;-1.33;100.00;97949.82;106658;1281;24281;-70
2023/01/21 05:02:03;;;;;;;3.90;2.10;;;;;;;-1.33;100.00;97950.52;106420;1259;138679;-70
2023/01/21 05:04:31;;;;;;;4.10;2.60;;;;;;;-1.32;100.00;97950.64;106674;1281;25316;-70
2023/01/21 05:06:58;;;;;;;3.10;1.90;;;;;;;-1.33;100.00;97950.52;106624;1279;139058;-71
2023/01/21 05:09:26;;;;;;;3.10;2.20;;;;;;;-1.34;100.00;97949.56;106655;1281;22542;-70
2023/01/21 05:11:52;;;;;;;3.70;2.40;;;;;;;-1.35;100.00;97946.59;106692;1279;25202;-70
2023/01/21 05:14:19;;;;;;;2.40;1.90;;;;;;;-1.35;100.00;97944.99;106378;1273;138014;-71
2023/01/21 05:16:46;;;;;;;4.40;2.50;;;;;;;-1.36;100.00;97946.91;106662;1281;23674;-70
2023/01/21 05:19:13;;;;;;;4.90;2.40;;;;;;;-1.36;100.00;97948.52;106436;1281;138002;-70
2023/01/21 05:21:40;;;;;;;3.90;2.30;;;;;;;-1.36;100.00;97949.73;106636;1281;22546;-70
2023/01/21 05:24:06;;;;;;;3.40;2.50;;;;;;;-1.37;100.00;97950.05;106675;1281;22574;-70
2023/01/21 05:26:34;;;;;;;3.80;2.30;;;;;;;-1.37;100.00;97947.59;106436;1281;139539;-70
2023/01/21 05:29:01;;;;;;;3.80;2.50;;;;;;;-1.38;100.00;97948.39;106905;1278;22539;-70
2023/01/21 05:31:28;;;;;;;3.30;2.50;;;;;;;-1.38;100.00;97947.73;106490;1281;138211;-70
2023/01/21 05:33:56;;;;;;;5.60;2.70;;;;;;;-1.38;100.00;97950.39;106637;1271;22551;-70
2023/01/21 05:36:23;;;;;;;4.10;2.60;;;;;;;-1.39;100.00;97951.14;107416;1281;22577;-70
2023/01/21 05:38:50;;;;;;;3.90;2.60;;;;;;;-1.39;100.00;97952.11;106464;1281;138372;-71
2023/01/21 05:41:18;;;;;;;3.20;2.50;;;;;;;-1.39;100.00;97951.94;106662;1281;24281;-71
2023/01/21 05:43:44;;;;;;;5.00;2.80;;;;;;;-1.39;100.00;97954.17;106960;1263;137934;-70
2023/01/21 05:46:11;;;;;;;4.30;2.80;;;;;;;-1.38;100.00;97955.40;106700;1281;24262;-70
2023/01/21 05:48:38;;;;;;;4.90;2.80;;;;;;;-1.38;100.00;97958.94;106561;1270;137995;-71
2023/01/21 05:51:05;;;;;;;8.10;3.40;;;;;;;-1.39;100.00;97954.20;106560;1281;138707;-70
2023/01/21 05:53:32;;;;;;;4.20;2.40;;;;;;;-1.39;100.00;97956.52;106624;1281;22540;-71
2023/01/21 05:55:59;;;;;;;4.20;2.60;;;;;;;-1.39;100.00;97958.80;106429;1281;137976;-70
2023/01/21 05:58:26;;;;;;;3.90;2.70;;;;;;;-1.39;100.00;97957.58;106643;1280;25297;-70
2023/01/21 06:00:55;;;;;;;3.60;2.10;;;;;;;-1.38;100.00;97954.37;107392;1281;138483;-71
2023/01/21 06:03:23;;;;;;;;;;;;;;;-1.39;100.00;97955.27;106673;1264;23331;-71
2023/01/21 06:05:50;;;;;;;3.10;2.20;;;;;;;-1.39;100.00;97952.16;106675;1282;22543;-71
2023/01/21 06:08:17;;;;;;;4.90;2.70;;;;;;;-1.39;100.00;97955.17;106525;1281;138863;-70
2023/01/21 06:10:44;;;;;;;4.00;2.60;;;;;;;-1.40;100.00;97961.67;106689;1281;23390;-71
2023/01/21 06:13:12;;;;;;;3.40;2.60;;;;;;;-1.41;100.00;97959.80;106499;1281;138725;-71
2023/01/21 06:15:39;;;;;;;3.60;2.20;;;;;;;-1.39;100.00;97963.37;107010;1270;22548;-71
2023/01/21 06:18:07;;;;;;;4.40;2.80;;;;;;;-1.40;100.00;97966.94;106652;1277;24183;-71
2023/01/21 06:20:35;;;;;;;4.30;2.60;;;;;;;-1.40;100.00;97966.69;106730;1274;139156;-70
2023/01/21 06:23:02;;;;;;;4.10;2.60;;;;;;;-1.41;100.00;97970.86;106648;1281;22555;-71
2023/01/21 06:25:30;;;;;;;4.40;2.40;;;;;;;-1.40;100.00;97973.79;106986;1263;139183;-70
2023/01/21 06:27:57;;;;;;;4.80;2.50;;;;;;;-1.40;100.00;97976.43;106699;1279;24783;-71
2023/01/21 06:30:24;;;;;;;3.70;2.40;;;;;;;-1.40;100.00;97978.16;107738;1278;22572;-71
2023/01/21 06:32:52;;;;;;;4.70;2.40;;;;;;;-1.38;100.00;97979.94;106552;1281;139026;-70
2023/01/21 06:35:19;;;;;;;4.50;2.70;;;;;;;-1.37;100.00;97979.63;106812;1275;25274;-71
2023/01/21 06:37:45;;;;;;;4.70;2.80;;;;;;;-1.35;100.00;97979.19;107912;1278;139287;-72
2023/01/21 06:40:13;;;;;;;4.20;2.60;;;;;;;-1.32;100.00;97982.64;107880;1278;22232;-71
2023/01/21 06:42:40;;;;;;;4.80;2.70;;;;;;;-1.29;100.00;97986.38;107488;1277;138114;-71
2023/01/21 06:45:07;;;;;;;5.00;2.90;;;;;;;-1.24;100.00;97988.33;109336;1263;138726;-72
2023/01/21 06:47:34;;;;;;;3.30;2.80;;;;;;;-1.19;100.00;97991.30;107173;1273;27726;-71
2023/01/21 06:50:01;;;;;;;5.00;2.70;;;;;;;-1.14;100.00;97992.24;106854;1273;139097;-71
2023/01/21 06:52:28;;;;;;;5.10;3.00;;;;;;;-1.08;100.00;97995.36;107048;1279;22568;-71
2023/01/21 06:54:55;;;;;;;3.10;2.10;;;;;;;-1.02;100.00;97996.04;106677;1264;138402;-71
2023/01/21 06:57:22;;;;;;;4.20;2.70;;;;;;;-0.97;100.00;97998.38;106526;1281;137840;-70
2023/01/21 06:59:49;;;;;;;5.20;2.70;;;;;;;-0.92;100.00;98002.65;106635;1281;22567;-71
2023/01/21 07:02:16;;;;;;;3.40;2.40;;;;;;;-0.88;100.00;98007.85;106966;1281;138027;-71
2023/01/21 07:04:44;;;;;;;2.30;2.10;;;;;;;-0.83;100.00;98007.01;106617;1281;22539;-71
2023/01/21 07:07:11;;;;;;;4.90;2.60;;;;;;;-0.80;99.95;98004.27;106964;1273;139060;-71
2023/01/21 07:09:38;;;;;;;4.70;2.70;;;;;;;-0.76;99.97;98010.91;107305;1276;22548;-71
2023/01/21 07:12:05;;;;;;;3.40;2.50;;;;;;;-0.71;99.93;98013.52;106996;1273;22202;-73
2023/01/21 07:14:32;;;;;;;6.00;2.50;;;;;;;-0.67;99.93;98014.96;108237;1260;138785;-71
2023/01/21 07:16:59;;;;;;;3.70;2.90;;;;;;;-0.61;99.83;98021.02;106707;1279;25116;-71
2023/01/21 07:19:26;;;;;;;3.50;2.40;;;;;;;-0.53;99.80;98025.54;106502;1281;138243;-71
2023/01/21 07:21:53;;;;;;;3.70;2.50;;;;;;;-0.47;99.49;98028.84;106667;1281;24006;-71
2023/01/21 07:24:20;;;;;;;3.90;2.10;;;;;;;-0.40;99.15;98027.61;106677;1281;22642;-71
2023/01/21 07:26:47;;;;;;;5.30;2.90;;;;;;;-0.35;98.53;98028.13;106456;1271;138095;-71
2023/01/21 07:29:14;;;;;;;3.30;2.40;;;;;;;-0.30;98.71;98031.56;106954;1279;22576;-71
2023/01/21 07:31:41;;;;;;;4.40;2.40;;;;;;;-0.22;98.40;98037.42;106481;1281;139468;-71
2023/01/21 07:34:08;;;;;;;5.50;3.00;;;;;;;-0.16;97.87;98040.66;106687;1281;22966;-71
2023/01/21 07:36:35;;;;;;;3.40;2.30;;;;;;;-0.10;97.51;98039.70;106608;1264;26297;-71
2023/01/21 07:39:02;;;;;;;3.90;2.70;;;;;;;-0.00;97.20;98040.32;106500;1282;138231;-71
2023/01/21 07:41:29;;;;;;;3.60;2.80;;;;;;;0.09;96.73;98041.38;106594;1282;24265;-71
2023/01/21 07:43:56;;;;;;;3.70;2.90;;;;;;;0.14;96.30;98043.30;106400;1282;139765;-71
2023/01/21 07:46:23;;;;;;;4.40;3.10;;;;;;;0.20;96.07;98041.96;106549;1273;23920;-71
2023/01/21 07:48:50;;;;;;;4.50;2.70;;;;;;;0.26;95.93;98044.23;106521;1282;138084;-71
2023/01/21 07:51:18;;;;;;;4.80;2.70;;;;;;;0.29;95.41;98044.45;106512;1282;138718;-71
2023/01/21 07:53:45;;;;;;;4.20;2.70;;;;;;;0.30;95.33;98051.21;106638;1282;22593;-70
2023/01/21 07:56:12;;;;;;;3.50;2.60;;;;;;;0.29;95.22;98056.31;106533;1261;138107;-71
2023/01/21 07:58:39;;;;;;;3.90;2.80;;;;;;;0.30;95.43;98051.23;106790;1271;22794;-70
2023/01/21 08:01:08;;;;;;;4.60;2.20;;;;;;;0.32;95.38;98053.73;106536;1281;138938;-71
2023/01/21 08:03:36;;;;;;;3.20;2.10;;;;;;;0.32;95.14;98055.08;106778;1281;24327;-71
2023/01/21 08:06:04;;;;;;;2.60;2.00;;;;;;;0.33;95.24;98059.48;106897;1271;26411;-70
2023/01/21 08:08:32;;;;;;;2.70;2.30;;;;;;;0.33;95.08;98057.70;106562;1282;138662;-70
2023/01/21 08:10:58;;;;;;;4.70;2.20;;;;;;;0.36;95.33;98063.68;106585;1282;22590;-70
2023/01/21 08:13:25;;;;;;;4.30;2.30;;;;;;;0.41;95.25;98070.98;106414;1281;138877;-71
2023/01/21 08:15:54;;;;;;;6.40;3.00;;;;;;;0.41;94.59;98076.52;106772;1281;22572;-70
2023/01/21 08:18:22;;;;;;;4.80;3.40;;;;;;;0.42;94.99;98071.91;106876;1276;22572;-70
2023/01/21 08:20:57;;;;;;;6.60;3.00;;;;;;;0.47;95.08;98077.39;106799;1281;138169;-70
2023/01/21 08:23:25;;;;;;;6.60;4.30;;;;;;;0.50;94.93;98078.80;106790;1281;25408;-70
2023/01/21 08:25:52;;;;;;;7.10;4.40;;;;;;;0.57;95.24;98084.75;106593;1281;138936;-72
2023/01/21 08:28:20;;;;;;;6.40;3.90;;;;;;;0.65;95.54;98085.13;106758;1263;22596;-70
2023/01/21 08:30:48;;;;;;;6.70;4.20;;;;;;;0.73;95.12;98083.45;106952;1281;137808;-71
2023/01/21 08:33:15;;;;;;;6.00;3.60;;;;;;;0.79;94.73;98076.81;106682;1281;138733;-70
2023/01/21 08:35:42;;;;;;;5.90;4.30;;;;;;;0.85;94.77;98082.55;106790;1281;22533;-70
2023/01/21 08:38:09;;;;;;;6.50;4.00;;;;;;;0.91;94.89;98086.23;106593;1263;138458;-70
2023/01/21 08:40:35;;;;;;;4.30;2.90;;;;;;;0.97;94.39;98086.22;107939;1273;23050;-71
2023/01/21 08:43:06;;;;;;;4.30;2.80;;;;;;;1.00;94.06;98087.48;106608;1281;138042;-71
2023/01/21 08:45:32;;;;;;;3.80;2.90;;;;;;;1.02;93.80;98084.86;107312;1263;23392;-71
2023/01/21 08:48:02;;;;;;;5.50;2.90;;;;;;;1.05;93.58;98087.56;106922;1281;22541;-70
2023/01/21 08:50:29;;;;;;;5.10;2.50;;;;;;;1.07;93.35;98093.72;108423;1281;139157;-70
2023/01/21 08:52:56;;;;;;;3.30;2.40;;;;;;;1.08;92.78;98097.29;106759;1281;22653;-70
2023/01/21 08:55:25;;;;;;;3.50;2.70;;;;;;;1.11;92.67;98100.66;106582;1281;137903;-71
2023/01/21 08:57:57;;;;;;;3.80;2.90;;;;;;;1.15;92.52;98103.06;106807;1261;22556;-70
2023/01/21 09:00:24;;;;;;;3.40;2.10;;;;;;;1.20;92.80;98108.55;106992;1281;22549;-70
2023/01/21 09:02:51;;;;;;;4.20;2.80;;;;;;;1.26;92.71;98111.00;106785;1281;138305;-70
2023/01/21 09:05:19;;;;;;;4.80;3.00;;;;;;;1.35;92.78;98114.87;106822;1281;22653;-70
2023/01/21 09:07:46;;;;;;;4.10;3.00;;;;;;;1.42;92.60;98117.12;107323;1262;139319;-71
2023/01/21 09:10:59;;;;;;;3.50;2.50;;;;;;;1.52;92.69;98125.00;106724;1282;25307;-70
2023/01/21 09:13:04;;;;;;;6.10;2.70;;;;;;;1.62;92.28;98132.88;106582;1281;139577;-71
2023/01/21 09:15:39;;;;;;;5.40;3.50;;;;;;;1.71;91.91;98128.56;106669;1281;22559;-71
2023/01/21 09:18:07;;;;;;;11.60;4.90;;;;;;;1.83;92.26;98128.38;107224;1259;24202;-70
2023/01/21 09:20:34;;;;;;;9.00;6.00;;;;;;;1.98;92.60;98123.63;106562;1281;138259;-71
2023/01/21 09:23:01;;;;;;;9.30;6.50;;;;;;;2.15;92.91;98124.89;106813;1281;22597;-71
2023/01/21 09:25:28;;;;;;;8.80;5.80;;;;;;;2.42;93.63;98125.65;106615;1280;138089;-71
2023/01/21 09:27:55;;;;;;;10.90;6.10;;;;;;;2.67;92.71;98123.48;106808;1263;24335;-71
2023/01/21 09:30:22;;;;;;;11.00;6.40;;;;;;;2.83;91.60;98127.95;106765;1281;23656;-70
2023/01/21 09:32:49;;;;;;;9.00;7.00;;;;;;;2.94;90.96;98131.23;106572;1281;138342;-70
2023/01/21 09:35:15;;;;;;;8.80;6.10;;;;;;;3.03;90.27;98136.84;106726;1281;22572;-70
2023/01/21 09:37:42;;;;;;;11.60;7.60;;;;;;;3.09;89.80;98140.54;109011;1257;139284;-72
2023/01/21 09:40:15;;;;;;;12.60;7.50;;;;;;;3.14;89.37;98139.34;109951;1274;23455;-71
2023/01/21 09:42:42;;;;;;;8.90;6.40;;;;;;;3.17;88.72;98143.23;109879;1273;138102;-71
2023/01/21 09:45:13;;;;;;;10.00;5.80;;;;;;;3.21;88.75;98146.05;108400;1281;138387;-71
2023/01/21 09:47:43;;;;;;;9.30;5.40;;;;;;;3.26;88.13;98143.08;107181;1258;23990;-71
2023/01/21 09:50:15;;;;;;;7.20;5.40;;;;;;;3.29;87.97;98143.33;107984;1281;138124;-71
2023/01/21 09:52:44;;;;;;;8.30;5.50;;;;;;;3.35;87.78;98137.20;107970;1273;22958;-70
2023/01/21 09:55:23;;;;;;;;;;;;;;;3.41;87.19;98140.67;107011;1271;138444;-70
2023/01/21 09:58:15;;;;;;;6.20;4.50;;;;;;;3.44;87.13;98144.79;107272;1261;22548;-70
2023/01/21 10:00:53;;;;;;;6.80;4.70;;;;;;;3.46;86.66;98145.77;108940;1273;137986;-71
2023/01/21 10:03:19;;;;;;;9.80;5.00;;;;;;;3.48;86.47;98152.16;108797;1278;138032;-70
2023/01/21 10:06:07;;;;;;;7.60;5.10;;;;;;;3.53;86.27;98152.93;107475;1281;25271;-70
2023/01/21 10:08:42;;;;;;;7.00;5.50;;;;;;;3.54;86.19;98161.55;106749;1261;138004;-71
2023/01/21 10:11:21;;;;;;;8.10;5.90;;;;;;;3.57;86.08;98162.21;107789;1265;24710;-70
2023/01/21 10:13:56;;;;;;;9.30;7.60;;;;;;;3.58;85.73;98165.27;108533;1277;138248;-71
2023/01/21 10:16:32;;;;;;;10.50;6.20;;;;;;;3.59;85.67;98160.36;109973;1276;22248;-71
2023/01/21 10:19:01;;;;;;;8.40;6.40;;;;;;;3.64;85.56;98162.46;109856;1259;138637;-71
2023/01/21 10:21:34;;;;;;;10.00;6.10;;;;;;;3.69;85.37;98161.38;109821;1277;138987;-71
2023/01/21 10:24:25;;;;;;;6.70;5.70;;;;;;;3.77;85.38;98157.90;109926;1281;23238;-71
2023/01/21 10:26:53;;;;;;;9.90;6.20;;;;;;;3.90;85.34;98154.31;109618;1275;138516;-71
2023/01/21 10:29:23;;;;;;;7.40;5.20;;;;;;;3.99;84.97;98152.20;109637;1263;22254;-71
2023/01/21 10:31:58;;;;;;;9.60;5.60;;;;;;;4.09;84.67;98157.02;106769;1276;138448;-71
2023/01/21 10:34:29;;;;;;;10.20;6.20;;;;;;;4.15;84.45;98156.01;109127;1277;23070;-73
2023/01/21 10:37:13;;;;;;;7.20;5.40;;;;;;;4.21;83.64;98157.70;106812;1275;139170;-73
2023/01/21 10:40:10;;;;;;;10.50;5.90;;;;;;;4.25;83.40;98153.70;109898;1264;23085;-71
2023/01/21 10:42:52;;;;;;;11.30;6.30;;;;;;;4.24;82.72;98154.95;107221;1275;138576;-71
2023/01/21 10:45:24;;;;;;;9.60;5.80;;;;;;;4.19;82.44;98153.38;106815;1269;138075;-71
2023/01/21 10:48:03;;;;;;;7.00;4.80;;;;;;;4.17;82.61;98153.52;106926;1275;25294;-71
2023/01/21 10:50:50;;;;;;;8.20;6.00;;;;;;;4.13;81.89;98149.55;106714;1260;137813;-71
2023/01/21 10:53:48;;;;;;;8.20;5.50;;;;;;;4.06;81.57;98146.78;107890;1276;22202;-71
2023/01/21 10:56:33;;;;;;;7.70;5.90;;;;;;;4.02;81.65;98147.59;109665;1276;138875;-72
2023/01/21 10:59:11;;;;;;;8.60;6.00;;;;;;;4.06;82.33;98149.27;107551;1260;23027;-71
2023/01/21 11:01:46;;;;;;;10.50;6.00;;;;;;;4.17;82.50;98152.90;108108;1277;138624;-72
2023/01/21 11:04:18;;;;;;;10.90;7.60;;;;;;;4.26;81.97;98154.71;107302;1275;24199;-71
2023/01/21 11:06:53;;;;;;;12.40;8.20;;;;;;;4.31;81.89;98158.83;106762;1276;139996;-71
2023/01/21 11:09:24;;;;;;;10.40;6.50;;;;;;;4.40;81.66;98149.73;109011;1260;138525;-72
2023/01/21 11:11:51;;;;;;;6.40;5.60;;;;;;;4.41;80.81;98153.11;107257;1282;22527;-71
2023/01/21 11:14:17;;;;;;;9.30;6.50;;;;;;;4.41;80.67;98150.67;107291;1276;139116;-72
2023/01/21 11:16:47;;;;;;;9.00;6.80;;;;;;;4.41;80.65;98151.42;108547;1276;22558;-71
2023/01/21 11:19:21;;;;;;;8.60;6.30;;;;;;;4.35;80.21;98152.72;106655;1260;139440;-75
2023/01/21 11:22:26;;;;;;;10.40;7.70;;;;;;;4.30;79.97;98161.00;106860;1280;22952;-71
2023/01/21 11:24:53;;;;;;;11.60;7.00;;;;;;;4.23;79.94;98164.19;106764;1278;138002;-72
2023/01/21 11:27:31;;;;;;;11.30;7.60;;;;;;;4.25;80.54;98165.23;106843;1273;139421;-72
2023/01/21 11:29:58;;;;;;;15.40;8.50;;;;;;;4.21;79.90;98163.95;109367;1259;22247;-72
2023/01/21 11:32:27;;;;;;;15.00;9.80;;;;;;;4.19;80.51;98166.15;109379;1273;138914;-72
2023/01/21 11:35:08;;;;;;;13.20;10.90;;;;;;;4.24;80.81;98164.52;109450;1274;22569;-72
2023/01/21 11:37:36;;;;;;;12.40;9.70;;;;;;;4.25;80.67;98165.57;109750;1273;138855;-72